Time;durP1;ratioP1;P1;durP2;ratioP2;P2;SDS_P1;SDS_P2;PMS_P1;PMS_P2;Temp;Humidity;BMP_temperature;BMP_pressure;BME280_temperature;BME280_humidity;BME280_pressure;Samples;Min_cycle;Max_cycle;Signal;HPM_P1;HPM_P2
2022/05/20 00:01:37;;;;;;;11.50;7.82;;;17.70;70.30;;;;;;5126981;27;20405;-67
2022/05/20 00:04:03;;;;;;;10.65;7.15;;;17.70;70.50;;;;;;5124398;27;20051;-67
2022/05/20 00:06:28;;;;;;;12.75;7.07;;;17.60;70.50;;;;;;5118210;27;20397;-67
2022/05/20 00:08:55;;;;;;;14.10;8.05;;;17.60;70.50;;;;;;5119067;27;20448;-67
2022/05/20 00:11:20;;;;;;;10.45;7.35;;;17.60;70.50;;;;;;5117113;27;20031;-67
2022/05/20 00:13:47;;;;;;;13.20;7.85;;;17.60;70.50;;;;;;5119511;27;20027;-67
2022/05/20 00:16:13;;;;;;;9.50;6.90;;;17.60;70.50;;;;;;5134351;27;20019;-67
2022/05/20 00:18:39;;;;;;;11.00;7.13;;;17.60;70.50;;;;;;5131876;27;20554;-67
2022/05/20 00:21:05;;;;;;;11.90;7.85;;;17.50;70.50;;;;;;5115787;28;20475;-67
2022/05/20 00:23:32;;;;;;;12.45;7.90;;;17.50;70.70;;;;;;5130218;28;20035;-67
2022/05/20 00:25:57;;;;;;;11.65;7.85;;;17.40;70.70;;;;;;5105108;28;20471;-67
2022/05/20 00:28:26;;;;;;;11.35;7.40;;;17.40;70.80;;;;;;5132035;28;20027;-67
2022/05/20 00:31:04;;;;;;;11.73;7.80;;;17.40;70.80;;;;;;5113405;28;20080;-67
2022/05/20 00:33:30;;;;;;;11.13;7.35;;;17.40;70.80;;;;;;5129541;27;20039;-67
2022/05/20 00:35:56;;;;;;;12.63;7.50;;;17.40;70.90;;;;;;5114077;28;20024;-67
2022/05/20 00:38:22;;;;;;;13.93;7.95;;;17.30;70.90;;;;;;5114852;28;20376;-67
2022/05/20 00:40:50;;;;;;;11.38;8.00;;;17.30;70.90;;;;;;5121988;28;20448;-67
2022/05/20 00:43:26;;;;;;;11.30;7.72;;;17.30;70.90;;;;;;5129159;27;20384;-67
2022/05/20 00:45:55;;;;;;;11.60;7.50;;;17.30;70.90;;;;;;5118570;28;20102;-67
2022/05/20 00:48:21;;;;;;;10.15;6.65;;;17.30;70.90;;;;;;5134883;28;20031;-66
2022/05/20 00:50:56;;;;;;;12.45;8.15;;;17.30;70.90;;;;;;5132076;27;20031;-67
2022/05/20 00:53:25;;;;;;;10.82;7.47;;;17.30;71.00;;;;;;5134325;27;20422;-67
2022/05/20 00:55:51;;;;;;;13.32;8.02;;;17.30;71.00;;;;;;5132469;27;20019;-67
2022/05/20 00:58:21;;;;;;;13.07;7.85;;;17.20;71.00;;;;;;5134556;27;20096;-67
2022/05/20 01:00:52;;;;;;;14.40;7.57;;;17.30;71.10;;;;;;5132159;27;20031;-67
2022/05/20 01:03:21;;;;;;;13.80;8.00;;;17.20;71.00;;;;;;5135443;27;20100;-67
2022/05/20 01:05:49;;;;;;;13.00;7.57;;;17.20;71.00;;;;;;5133532;27;20088;-66
2022/05/20 01:08:19;;;;;;;12.88;8.15;;;17.20;71.00;;;;;;5139509;27;20073;-67
2022/05/20 01:10:44;;;;;;;11.88;7.70;;;17.20;71.00;;;;;;5135482;27;20070;-67
2022/05/20 01:13:13;;;;;;;11.68;7.95;;;17.20;71.00;;;;;;5138153;27;20344;-66
2022/05/20 01:15:38;;;;;;;11.30;7.28;;;17.10;71.00;;;;;;5138127;27;20034;-67
2022/05/20 01:18:04;;;;;;;12.55;7.40;;;17.10;71.00;;;;;;5137245;27;20027;-67
2022/05/20 01:20:37;;;;;;;10.95;7.13;;;17.10;71.10;;;;;;5137419;27;20355;-66
2022/05/20 01:23:12;;;;;;;12.63;7.97;;;17.10;71.10;;;;;;5135402;27;20068;-67
2022/05/20 01:25:43;;;;;;;10.40;6.95;;;17.10;71.10;;;;;;5118664;27;20028;-67
2022/05/20 01:28:10;;;;;;;;;;;17.10;71.00;;;;;;5134462;27;20039;-67
2022/05/20 01:30:39;;;;;;;12.32;7.38;;;17.10;71.00;;;;;;5125975;27;20237;-67
2022/05/20 01:33:06;;;;;;;12.10;7.32;;;17.00;71.10;;;;;;5131562;27;20047;-66
2022/05/20 01:35:50;;;;;;;11.05;7.38;;;17.00;71.00;;;;;;5138788;27;20412;-67
2022/05/20 01:38:15;;;;;;;11.05;6.95;;;17.00;71.00;;;;;;5137279;27;20096;-66
2022/05/20 01:40:48;;;;;;;10.73;6.80;;;17.00;71.00;;;;;;5136754;27;20035;-67
2022/05/20 01:43:45;;;;;;;11.10;7.45;;;17.00;71.00;;;;;;5132373;27;20180;-67
2022/05/20 01:46:28;;;;;;;10.65;7.20;;;16.90;70.90;;;;;;5117490;28;20428;-67
2022/05/20 01:49:15;;;;;;;10.02;7.05;;;16.90;71.00;;;;;;5117618;28;20035;-67
2022/05/20 01:51:50;;;;;;;12.07;6.43;;;16.90;70.90;;;;;;5129110;27;20113;-67
2022/05/20 01:54:39;;;;;;;9.80;7.70;;;16.90;71.00;;;;;;5136577;27;20019;-67
2022/05/20 01:57:19;;;;;;;10.77;7.57;;;16.90;71.00;;;;;;5136200;27;20046;-67
2022/05/20 01:59:56;;;;;;;11.45;7.63;;;16.90;71.10;;;;;;5137158;27;20428;-67
2022/05/20 02:02:29;;;;;;;12.75;8.05;;;16.90;71.10;;;;;;5136977;27;20042;-67
2022/05/20 02:05:19;;;;;;;13.07;8.13;;;16.80;71.10;;;;;;5138793;27;20347;-66
2022/05/20 02:07:49;;;;;;;12.38;7.47;;;16.80;71.10;;;;;;5132672;27;20106;-67
2022/05/20 02:10:26;;;;;;;12.80;8.23;;;16.80;71.10;;;;;;5136263;27;20035;-67
2022/05/20 02:12:56;;;;;;;11.27;7.45;;;16.80;71.10;;;;;;5136342;27;20114;-67
2022/05/20 02:15:44;;;;;;;10.68;7.47;;;16.70;71.10;;;;;;5138459;27;20377;-67
2022/05/20 02:18:15;;;;;;;12.02;6.63;;;16.70;71.00;;;;;;5136455;27;20352;-67
2022/05/20 02:20:45;;;;;;;11.20;7.43;;;16.70;71.10;;;;;;5134815;27;20087;-67
2022/05/20 02:23:15;;;;;;;11.38;7.15;;;16.70;71.10;;;;;;5136122;27;20038;-67
2022/05/20 02:25:47;;;;;;;13.20;7.68;;;16.70;71.10;;;;;;5135840;27;20369;-67
2022/05/20 02:28:20;;;;;;;11.23;7.40;;;16.70;71.30;;;;;;5132161;27;20035;-67
2022/05/20 02:30:46;;;;;;;13.45;7.88;;;16.70;71.30;;;;;;5131503;27;20035;-67
2022/05/20 02:33:17;;;;;;;11.45;8.13;;;16.70;71.30;;;;;;5135621;27;20027;-67
2022/05/20 02:35:43;;;;;;;11.27;7.90;;;16.70;71.30;;;;;;5132689;27;20024;-67
2022/05/20 02:38:16;;;;;;;13.52;7.78;;;16.60;71.30;;;;;;5125664;27;20043;-67
2022/05/20 02:40:44;;;;;;;12.15;7.80;;;16.60;71.30;;;;;;5133143;27;20027;-67
2022/05/20 02:43:10;;;;;;;12.45;7.85;;;16.60;71.30;;;;;;5124752;27;20030;-67
2022/05/20 02:45:37;;;;;;;12.75;8.30;;;16.60;71.40;;;;;;5132137;27;20024;-67
2022/05/20 02:48:03;;;;;;;13.07;8.30;;;16.60;71.40;;;;;;5131868;27;20035;-67
2022/05/20 02:50:29;;;;;;;12.60;8.98;;;16.50;71.40;;;;;;5121475;27;20359;-67
2022/05/20 02:52:54;;;;;;;13.13;8.40;;;16.60;71.50;;;;;;5130065;27;20065;-67
2022/05/20 02:55:20;;;;;;;14.55;8.50;;;16.50;71.40;;;;;;5116191;27;20446;-67
2022/05/20 02:57:45;;;;;;;13.60;8.27;;;16.50;71.50;;;;;;5118761;27;20054;-67
2022/05/20 03:05:42;;;;;;;10.70;7.88;;;16.50;71.60;;;;;;5129595;27;20486;-67
2022/05/20 03:08:07;;;;;;;10.60;7.68;;;16.40;71.60;;;;;;5132995;27;20060;-66
2022/05/20 03:10:33;;;;;;;12.32;8.65;;;16.40;71.60;;;;;;5134923;27;20028;-67
2022/05/20 03:12:59;;;;;;;14.15;8.38;;;16.40;71.60;;;;;;5123653;27;20092;-67
2022/05/20 03:15:25;;;;;;;12.20;8.90;;;16.30;71.60;;;;;;5134420;27;20019;-66
2022/05/20 03:17:51;;;;;;;13.55;8.85;;;16.30;72.50;;;;;;5129514;27;20153;-67
2022/05/20 03:20:16;;;;;;;11.93;8.52;;;16.40;72.00;;;;;;5134860;27;20042;-67
2022/05/20 03:22:42;;;;;;;13.50;8.90;;;16.40;72.10;;;;;;5122518;27;20481;-67
2022/05/20 03:25:08;;;;;;;12.52;9.32;;;16.40;72.20;;;;;;5133189;27;20359;-67
2022/05/20 03:27:34;;;;;;;11.48;8.68;;;16.40;72.30;;;;;;5128696;27;20051;-66
2022/05/20 03:30:00;;;;;;;14.48;9.15;;;16.40;72.40;;;;;;5135939;27;20071;-66
2022/05/20 03:32:26;;;;;;;13.48;8.88;;;16.40;72.40;;;;;;5123977;27;20046;-67
2022/05/20 03:34:52;;;;;;;12.07;9.30;;;16.40;72.50;;;;;;5133890;27;20094;-67
2022/05/20 03:37:17;;;;;;;13.80;9.15;;;16.40;72.50;;;;;;5122011;27;20039;-67
2022/05/20 03:39:43;;;;;;;13.48;8.75;;;16.30;72.60;;;;;;5115364;27;20133;-67
2022/05/20 03:42:08;;;;;;;13.85;9.00;;;16.30;72.50;;;;;;5124125;27;20028;-67
2022/05/20 03:44:34;;;;;;;13.38;8.73;;;16.30;72.40;;;;;;5114918;27;20028;-67
2022/05/20 03:47:01;;;;;;;14.15;8.80;;;16.30;72.40;;;;;;5113759;27;20433;-67
2022/05/20 03:49:28;;;;;;;11.27;8.40;;;16.30;72.30;;;;;;5133475;27;20080;-67
2022/05/20 03:51:56;;;;;;;12.68;9.65;;;16.30;72.20;;;;;;5119052;27;20382;-67
2022/05/20 03:54:25;;;;;;;11.07;8.27;;;16.30;72.20;;;;;;5123747;27;20032;-66
2022/05/20 03:56:51;;;;;;;12.60;9.07;;;16.20;72.10;;;;;;5117268;27;20115;-66
2022/05/20 03:59:16;;;;;;;11.95;8.25;;;16.20;72.10;;;;;;5132612;27;20122;-66
2022/05/20 04:01:58;;;;;;;10.93;8.15;;;16.20;72.10;;;;;;5115054;27;20445;-67
2022/05/20 04:04:43;;;;;;;12.65;9.13;;;16.20;72.10;;;;;;5124893;27;20051;-67
2022/05/20 04:07:13;;;;;;;12.70;8.55;;;16.20;72.00;;;;;;5133854;27;20080;-67
2022/05/20 04:09:39;;;;;;;12.25;8.20;;;16.10;72.00;;;;;;5123677;27;20059;-67
2022/05/20 04:12:08;;;;;;;12.70;8.50;;;16.20;72.10;;;;;;5125245;27;20433;-67
2022/05/20 04:14:34;;;;;;;11.23;8.45;;;16.10;72.00;;;;;;5132803;27;20026;-67
2022/05/20 04:17:01;;;;;;;12.05;8.57;;;16.10;72.00;;;;;;5133007;27;20023;-67
2022/05/20 04:19:30;;;;;;;12.05;9.25;;;16.10;72.00;;;;;;5122528;28;20118;-66
2022/05/20 04:21:59;;;;;;;12.38;8.15;;;16.10;72.10;;;;;;5127325;27;20376;-67
2022/05/20 04:24:25;;;;;;;11.90;9.20;;;16.20;72.10;;;;;;5123243;28;20027;-66
2022/05/20 04:26:51;;;;;;;12.85;8.70;;;16.20;72.10;;;;;;5134172;27;20483;-66
2022/05/20 04:29:18;;;;;;;12.25;8.50;;;16.10;72.00;;;;;;5133327;28;20046;-66
2022/05/20 04:31:49;;;;;;;12.68;9.02;;;16.20;72.00;;;;;;5131646;27;20031;-65
2022/05/20 04:34:15;;;;;;;13.25;9.15;;;16.20;72.00;;;;;;5133193;27;20404;-66
2022/05/20 04:36:41;;;;;;;14.43;9.43;;;16.20;71.90;;;;;;5125717;28;20118;-66
2022/05/20 04:39:07;;;;;;;15.07;10.07;;;16.20;71.90;;;;;;5128763;27;20115;-65
2022/05/20 04:47:04;;;;;;;12.85;9.00;;;16.20;71.80;;;;;;5125686;27;20031;-66
2022/05/20 04:49:31;;;;;;;13.65;9.23;;;16.20;71.80;;;;;;5132502;27;20023;-66
2022/05/20 04:52:00;;;;;;;14.07;9.85;;;16.30;71.80;;;;;;5133074;27;20042;-68
2022/05/20 04:57:18;;;;;;;12.57;9.23;;;16.30;71.90;;;;;;5127361;27;20090;-67
2022/05/20 04:59:44;;;;;;;11.75;8.23;;;16.20;71.80;;;;;;5137285;27;20091;-67
2022/05/20 05:02:09;;;;;;;18.55;8.40;;;16.30;71.80;;;;;;5129804;27;20377;-67
2022/05/20 05:04:35;;;;;;;11.95;8.80;;;16.30;71.70;;;;;;5135894;27;20038;-67
2022/05/20 05:07:00;;;;;;;13.38;9.60;;;16.30;71.60;;;;;;5134928;27;20130;-66
2022/05/20 05:09:26;;;;;;;13.00;9.23;;;16.40;71.70;;;;;;5136846;27;20372;-67
2022/05/20 05:11:52;;;;;;;13.32;9.65;;;16.40;71.60;;;;;;5137066;27;20035;-67
2022/05/20 05:14:17;;;;;;;12.85;9.05;;;16.50;71.50;;;;;;5124383;27;20024;-66
2022/05/20 05:16:43;;;;;;;12.63;8.93;;;16.60;71.40;;;;;;5127252;27;20032;-67
2022/05/20 05:19:11;;;;;;;14.68;9.60;;;16.70;71.30;;;;;;5130585;27;20363;-67
2022/05/20 05:21:37;;;;;;;11.65;8.57;;;17.00;70.90;;;;;;5139531;27;20030;-67
2022/05/20 05:24:03;;;;;;;15.55;9.65;;;17.30;70.20;;;;;;5129497;27;20440;-67
2022/05/20 05:26:32;;;;;;;12.27;9.60;;;17.70;69.20;;;;;;5129456;27;20367;-67
2022/05/20 05:28:59;;;;;;;14.30;10.27;;;17.90;68.40;;;;;;5137907;27;20035;-67
2022/05/20 05:31:26;;;;;;;13.65;10.73;;;17.90;69.10;;;;;;5134305;27;20055;-67
2022/05/20 05:33:53;;;;;;;14.13;10.93;;;17.90;68.70;;;;;;5139067;27;20031;-67
2022/05/20 05:36:19;;;;;;;13.93;10.48;;;17.90;68.90;;;;;;5124809;27;20026;-67
2022/05/20 05:38:46;;;;;;;13.90;9.70;;;17.90;69.00;;;;;;5137196;27;20047;-67
2022/05/20 05:41:12;;;;;;;14.73;11.20;;;18.00;69.10;;;;;;5118676;27;20027;-67
2022/05/20 05:43:38;;;;;;;13.55;10.77;;;18.00;69.10;;;;;;5137067;27;20103;-67
2022/05/20 05:46:04;;;;;;;14.90;10.70;;;18.10;69.10;;;;;;5137577;27;20031;-67
2022/05/20 05:48:30;;;;;;;14.40;11.10;;;18.10;69.00;;;;;;5138265;27;20356;-67
2022/05/20 05:50:57;;;;;;;14.93;10.70;;;18.20;69.20;;;;;;5137061;27;20102;-67
2022/05/20 05:53:25;;;;;;;16.13;11.90;;;18.30;69.10;;;;;;5124810;27;20024;-68
2022/05/20 05:55:58;;;;;;;15.07;11.50;;;18.40;68.90;;;;;;5129653;27;20027;-67
2022/05/20 05:58:26;;;;;;;13.32;10.75;;;18.50;68.60;;;;;;5118231;27;20023;-67
2022/05/20 06:00:53;;;;;;;16.90;11.43;;;18.50;68.40;;;;;;5119323;27;20030;-68
2022/05/20 06:03:19;;;;;;;16.58;11.50;;;18.60;68.20;;;;;;5121448;27;20040;-68
2022/05/20 06:05:45;;;;;;;14.43;11.57;;;18.70;68.00;;;;;;5126844;27;20027;-67
2022/05/20 06:08:11;;;;;;;17.02;11.55;;;18.70;67.80;;;;;;5130020;27;20359;-67
2022/05/20 06:10:37;;;;;;;17.95;11.88;;;18.80;67.70;;;;;;5120596;27;20046;-68
2022/05/20 06:13:03;;;;;;;16.02;11.45;;;18.80;67.60;;;;;;5123879;27;20021;-66
2022/05/20 06:15:29;;;;;;;14.93;11.02;;;19.00;67.50;;;;;;5118635;27;20023;-67
2022/05/20 06:17:56;;;;;;;16.05;10.50;;;19.10;67.40;;;;;;5117796;27;20034;-67
2022/05/20 06:20:22;;;;;;;15.20;9.88;;;19.20;67.00;;;;;;5119497;27;20096;-68
2022/05/20 06:22:49;;;;;;;14.07;9.57;;;19.40;66.80;;;;;;5131257;27;20096;-66
2022/05/20 06:25:15;;;;;;;16.42;11.15;;;19.60;66.60;;;;;;5131922;27;20031;-67
2022/05/20 06:27:41;;;;;;;12.68;9.60;;;19.80;66.40;;;;;;5127820;27;20034;-66
2022/05/20 06:30:09;;;;;;;15.57;10.38;;;20.00;65.80;;;;;;5123115;27;20027;-67
2022/05/20 06:32:35;;;;;;;15.13;10.48;;;20.10;65.80;;;;;;5133039;27;20412;-66
2022/05/20 06:40:45;;;;;;;11.85;8.65;;;20.50;64.50;;;;;;5129922;27;20095;-66
2022/05/20 06:43:19;;;;;;;12.00;8.55;;;20.60;64.00;;;;;;5131299;27;20405;-67
2022/05/20 06:45:48;;;;;;;14.00;8.48;;;20.80;63.30;;;;;;5132924;27;20499;-67
2022/05/20 06:48:14;;;;;;;13.20;7.85;;;20.80;63.00;;;;;;5135128;27;20039;-67
2022/05/20 06:50:41;;;;;;;12.50;7.97;;;20.90;62.80;;;;;;5131365;27;20349;-65
2022/05/20 06:53:07;;;;;;;12.25;8.18;;;21.00;62.70;;;;;;5123453;27;20148;-66
2022/05/20 06:55:33;;;;;;;13.45;7.85;;;20.90;62.50;;;;;;5120653;27;20410;-65
2022/05/20 06:57:59;;;;;;;12.38;8.05;;;21.00;62.20;;;;;;5126299;27;20035;-65
2022/05/20 07:00:25;;;;;;;12.82;7.25;;;21.10;61.90;;;;;;5140031;27;20107;-65
2022/05/20 07:02:51;;;;;;;10.23;6.88;;;21.20;61.70;;;;;;5119588;27;20031;-67
2022/05/20 07:05:16;;;;;;;11.02;7.20;;;21.40;61.40;;;;;;5127570;27;20047;-65
2022/05/20 07:07:43;;;;;;;13.30;7.20;;;21.50;61.00;;;;;;5136901;27;20446;-65
2022/05/20 07:10:10;;;;;;;12.90;7.72;;;21.60;60.50;;;;;;5119307;27;20038;-65
2022/05/20 07:12:36;;;;;;;10.38;7.00;;;21.70;60.30;;;;;;5116775;27;20024;-65
2022/05/20 07:15:02;;;;;;;9.50;6.63;;;21.90;59.90;;;;;;5124708;27;20355;-65
2022/05/20 07:17:28;;;;;;;11.38;7.40;;;22.00;59.60;;;;;;5133366;27;20035;-65
2022/05/20 07:19:54;;;;;;;10.63;7.22;;;22.20;59.30;;;;;;5131841;27;20080;-65
2022/05/20 07:22:20;;;;;;;12.40;7.90;;;22.20;59.00;;;;;;5123355;27;20110;-65
2022/05/20 07:24:46;;;;;;;12.95;8.45;;;22.30;58.80;;;;;;5116263;27;20057;-65
2022/05/20 07:27:12;;;;;;;13.90;8.10;;;22.50;58.70;;;;;;5116487;27;20051;-65
2022/05/20 07:29:39;;;;;;;10.63;7.03;;;22.60;58.60;;;;;;5122521;27;20031;-64
2022/05/20 07:32:05;;;;;;;11.40;7.85;;;22.60;58.30;;;;;;5134279;27;20023;-64
2022/05/20 07:34:31;;;;;;;13.65;8.98;;;22.70;58.20;;;;;;5116788;27;20054;-64
2022/05/20 07:36:56;;;;;;;12.48;8.13;;;22.80;57.80;;;;;;5127985;27;20063;-65
2022/05/20 07:39:22;;;;;;;14.02;7.80;;;22.90;57.60;;;;;;5125156;27;20035;-64
2022/05/20 07:41:48;;;;;;;12.55;8.60;;;23.00;57.40;;;;;;5121012;27;20053;-65
2022/05/20 07:44:13;;;;;;;12.40;7.95;;;23.10;57.20;;;;;;5129306;27;20058;-64
2022/05/20 07:46:39;;;;;;;11.90;7.38;;;23.20;57.00;;;;;;5134993;27;20094;-65
2022/05/20 07:49:05;;;;;;;11.27;7.93;;;23.30;56.70;;;;;;5120401;27;20019;-65
2022/05/20 07:51:33;;;;;;;11.25;7.68;;;23.40;56.60;;;;;;5128149;27;20034;-64
2022/05/20 07:54:07;;;;;;;11.52;7.05;;;23.60;55.90;;;;;;5119072;27;20031;-65
2022/05/20 07:56:38;;;;;;;10.60;7.35;;;23.70;55.60;;;;;;5116709;27;20034;-65
2022/05/20 07:59:10;;;;;;;10.13;7.03;;;23.80;55.40;;;;;;5119492;27;20042;-64
2022/05/20 08:01:41;;;;;;;10.68;7.03;;;23.90;55.20;;;;;;5126027;27;20031;-65
2022/05/20 08:07:05;;;;;;;12.18;7.43;;;23.60;55.60;;;;;;5127240;27;20045;-64
2022/05/20 08:09:31;;;;;;;16.52;7.97;;;23.40;55.80;;;;;;5121279;27;20048;-64
2022/05/20 08:11:58;;;;;;;11.15;7.75;;;23.50;55.90;;;;;;5122266;27;20024;-64
2022/05/20 08:14:26;;;;;;;10.77;6.68;;;23.70;55.30;;;;;;5124857;27;20027;-64
2022/05/20 08:16:52;;;;;;;11.23;6.65;;;23.80;54.90;;;;;;5120086;27;20034;-66
2022/05/20 08:19:17;;;;;;;10.45;6.10;;;23.90;54.70;;;;;;5110388;28;20027;-66
2022/05/20 08:21:43;;;;;;;10.40;6.40;;;23.90;54.50;;;;;;5118817;28;20115;-66
2022/05/20 08:24:08;;;;;;;11.50;6.60;;;23.90;54.30;;;;;;5120235;28;20151;-66
2022/05/20 08:26:36;;;;;;;10.43;5.95;;;23.90;54.10;;;;;;5121097;27;20084;-65
2022/05/20 08:29:03;;;;;;;11.68;5.60;;;23.90;53.80;;;;;;5125882;28;20019;-66
2022/05/20 08:31:28;;;;;;;10.15;5.70;;;23.90;53.70;;;;;;5129572;27;20447;-66
2022/05/20 08:33:54;;;;;;;11.90;5.72;;;24.00;53.60;;;;;;5131991;28;20038;-66
2022/05/20 08:36:20;;;;;;;11.02;6.53;;;24.00;53.40;;;;;;5120664;27;20092;-66
2022/05/20 08:38:47;;;;;;;8.30;4.82;;;24.00;53.20;;;;;;5118100;27;20035;-67
2022/05/20 08:41:19;;;;;;;11.40;5.82;;;23.90;52.90;;;;;;5122556;28;20460;-67
2022/05/20 08:43:47;;;;;;;7.75;4.43;;;23.90;52.70;;;;;;5125340;27;20036;-68
2022/05/20 08:46:23;;;;;;;10.05;5.78;;;23.90;52.80;;;;;;5116122;28;20486;-66
2022/05/20 08:48:52;;;;;;;8.85;5.70;;;23.90;52.80;;;;;;5117547;27;20032;-67
2022/05/20 08:51:18;;;;;;;11.35;6.28;;;23.90;52.80;;;;;;5124071;28;20037;-67
2022/05/20 08:53:46;;;;;;;12.13;6.45;;;24.00;52.50;;;;;;5126728;28;20420;-67
2022/05/20 08:56:17;;;;;;;10.73;6.30;;;24.00;52.40;;;;;;5123942;27;20057;-67
2022/05/20 08:59:03;;;;;;;10.15;5.47;;;24.10;52.50;;;;;;5134687;28;20027;-66
2022/05/20 09:01:34;;;;;;;8.43;4.18;;;24.20;52.30;;;;;;5132077;27;20102;-66
2022/05/20 09:04:01;;;;;;;11.02;5.63;;;24.30;51.50;;;;;;5133414;27;20019;-67
2022/05/20 09:06:28;;;;;;;9.68;5.32;;;24.30;51.20;;;;;;5122789;27;20397;-66
2022/05/20 09:09:10;;;;;;;9.30;5.68;;;24.40;51.30;;;;;;5113786;28;20400;-66
2022/05/20 09:11:37;;;;;;;9.18;5.30;;;24.50;51.10;;;;;;5112620;28;20072;-66
2022/05/20 09:17:22;;;;;;;10.25;5.90;;;24.50;50.30;;;;;;5113712;28;20042;-66
2022/05/20 09:20:04;;;;;;;9.57;4.85;;;24.40;50.60;;;;;;5121212;28;20115;-66
2022/05/20 09:22:37;;;;;;;10.65;5.40;;;24.40;50.60;;;;;;5121418;27;20024;-66
2022/05/20 09:25:09;;;;;;;10.98;5.10;;;24.40;50.80;;;;;;5119549;28;20035;-66
2022/05/20 09:27:36;;;;;;;11.30;6.13;;;24.30;50.90;;;;;;5135374;27;20027;-66
2022/05/20 09:30:20;;;;;;;9.63;6.25;;;24.30;51.10;;;;;;5118215;27;20088;-67
2022/05/20 09:33:01;;;;;;;11.38;6.38;;;24.20;51.10;;;;;;5131297;27;20432;-67
2022/05/20 09:35:33;;;;;;;8.77;5.68;;;24.10;51.30;;;;;;5127942;27;20452;-67
2022/05/20 09:38:07;;;;;;;9.23;6.30;;;24.10;51.60;;;;;;5123651;27;20336;-67
2022/05/20 09:40:47;;;;;;;9.57;6.03;;;24.00;51.70;;;;;;5119683;27;20024;-72
2022/05/20 09:43:31;;;;;;;10.98;5.93;;;23.90;51.90;;;;;;5132285;27;20038;-67
2022/05/20 09:45:59;;;;;;;9.38;5.68;;;23.80;52.10;;;;;;5117596;27;20124;-67
2022/05/20 09:48:55;;;;;;;10.43;5.97;;;23.70;52.40;;;;;;5132706;27;20351;-67
2022/05/20 09:51:48;;;;;;;9.82;5.35;;;23.60;52.20;;;;;;5130426;27;20055;-68
2022/05/20 09:54:32;;;;;;;9.98;5.50;;;23.50;52.30;;;;;;5122167;27;20036;-66
2022/05/20 09:57:14;;;;;;;9.77;5.75;;;23.50;52.10;;;;;;5130116;27;20455;-66
2022/05/20 09:59:50;;;;;;;8.30;5.20;;;23.50;51.80;;;;;;5120647;27;20068;-67
2022/05/20 10:02:35;;;;;;;9.02;5.78;;;23.50;52.00;;;;;;5133331;27;20046;-66
2022/05/20 10:05:13;;;;;;;8.75;5.47;;;23.60;51.80;;;;;;5124444;27;20106;-67
2022/05/20 10:08:15;;;;;;;9.00;5.75;;;23.60;51.60;;;;;;5125543;27;20023;-67
2022/05/20 10:11:02;;;;;;;8.57;5.65;;;23.70;51.30;;;;;;5124010;27;20027;-65
2022/05/20 10:13:53;;;;;;;9.93;5.57;;;23.90;51.40;;;;;;5129245;27;20508;-65
2022/05/20 10:16:53;;;;;;;10.65;5.70;;;24.00;51.10;;;;;;5119163;27;20020;-65
2022/05/20 10:19:44;;;;;;;10.48;5.80;;;24.10;51.20;;;;;;5120033;27;20026;-64
2022/05/20 10:22:52;;;;;;;9.45;5.55;;;24.10;51.00;;;;;;5126669;27;20024;-64
2022/05/20 10:25:29;;;;;;;9.65;4.75;;;24.10;50.80;;;;;;5121341;27;20034;-65
2022/05/20 10:34:12;;;;;;;8.75;5.07;;;24.20;50.30;;;;;;5117151;27;20113;-64
2022/05/20 10:36:56;;;;;;;10.65;4.90;;;24.20;50.30;;;;;;5123823;27;20074;-65
2022/05/20 10:39:31;;;;;;;11.38;5.43;;;24.30;50.30;;;;;;5126394;27;20031;-64
2022/05/20 10:42:21;;;;;;;7.70;4.65;;;24.50;49.60;;;;;;5130813;27;20031;-65
2022/05/20 10:50:55;;;;;;;6.65;3.67;;;25.30;48.10;;;;;;5129776;27;20054;-63
2022/05/20 10:53:55;;;;;;;10.20;3.05;;;25.50;47.70;;;;;;5119051;27;20034;-63
2022/05/20 10:56:53;;;;;;;6.40;3.10;;;25.60;46.80;;;;;;5103565;27;20055;-63
2022/05/20 10:59:25;;;;;;;7.75;3.20;;;25.70;46.30;;;;;;5129710;27;20394;-64
2022/05/20 11:02:16;;;;;;;7.70;3.65;;;25.80;46.10;;;;;;5125252;27;20087;-63
2022/05/20 11:05:04;;;;;;;8.25;3.40;;;25.70;45.90;;;;;;5125912;27;20023;-63
2022/05/20 11:07:50;;;;;;;6.95;3.13;;;25.60;45.90;;;;;;5113281;27;20046;-63
2022/05/20 11:10:50;;;;;;;8.05;3.45;;;25.50;46.00;;;;;;5120868;27;20043;-65
2022/05/20 11:13:33;;;;;;;9.23;3.92;;;25.40;46.20;;;;;;5121923;27;20019;-64
2022/05/20 11:16:25;;;;;;;7.57;3.75;;;25.30;46.40;;;;;;5118975;27;20036;-63
2022/05/20 11:19:01;;;;;;;6.60;3.50;;;25.30;46.40;;;;;;5120367;27;20107;-64
2022/05/20 11:21:58;;;;;;;7.00;3.83;;;25.20;46.40;;;;;;5135488;27;20087;-63
2022/05/20 11:24:50;;;;;;;8.50;3.75;;;25.10;46.50;;;;;;5115223;28;20036;-63
2022/05/20 11:27:23;;;;;;;8.00;3.70;;;24.90;46.70;;;;;;5116015;27;20043;-63
2022/05/20 11:30:18;;;;;;;7.13;3.60;;;24.90;46.90;;;;;;5134010;27;20059;-63
2022/05/20 11:32:55;;;;;;;8.27;4.38;;;24.80;46.80;;;;;;5132396;27;20054;-65
2022/05/20 11:35:47;;;;;;;7.57;4.20;;;24.80;47.00;;;;;;5123476;27;20034;-66
2022/05/20 11:38:59;;;;;;;9.10;5.05;;;24.70;47.30;;;;;;5127379;27;20038;-66
2022/05/20 11:41:46;;;;;;;9.93;5.50;;;24.70;47.70;;;;;;5123820;27;20039;-66
2022/05/20 11:44:37;;;;;;;9.07;5.30;;;24.60;48.00;;;;;;5121907;27;20027;-66
2022/05/20 11:47:37;;;;;;;9.88;5.55;;;24.60;48.40;;;;;;5119592;27;20442;-66
2022/05/20 11:50:06;;;;;;;9.10;5.30;;;24.60;48.70;;;;;;5114996;27;20356;-66
2022/05/20 11:52:48;;;;;;;9.27;5.88;;;24.60;48.90;;;;;;5130963;27;20023;-67
2022/05/20 11:55:23;;;;;;;9.80;6.10;;;24.50;49.00;;;;;;5127086;27;20087;-67
2022/05/20 11:57:54;;;;;;;10.00;6.10;;;24.40;49.30;;;;;;5133123;27;20443;-67
2022/05/20 12:00:21;;;;;;;10.02;6.60;;;24.30;49.80;;;;;;5132202;27;20424;-67
2022/05/20 12:02:49;;;;;;;11.30;6.63;;;24.20;50.20;;;;;;5121832;27;20055;-67
2022/05/20 12:05:20;;;;;;;11.30;6.70;;;24.00;50.50;;;;;;5115605;28;20088;-67
2022/05/20 12:07:46;;;;;;;9.57;5.95;;;23.90;50.90;;;;;;5133497;27;20452;-67
2022/05/20 12:10:30;;;;;;;11.25;7.25;;;23.90;51.30;;;;;;5134317;27;20078;-67
2022/05/20 12:13:14;;;;;;;12.27;6.88;;;23.70;51.70;;;;;;5136009;27;20027;-67
2022/05/20 12:15:42;;;;;;;14.10;7.00;;;23.70;52.00;;;;;;5126983;27;20035;-67
2022/05/20 12:24:42;;;;;;;9.75;6.35;;;23.50;52.90;;;;;;5115080;28;20024;-67
2022/05/20 12:27:12;;;;;;;10.63;7.30;;;23.30;53.30;;;;;;5125097;28;20101;-67
2022/05/20 12:29:38;;;;;;;10.23;6.88;;;23.20;53.60;;;;;;5136540;27;20050;-67
2022/05/20 12:32:49;;;;;;;12.27;7.50;;;23.10;53.90;;;;;;5129798;27;20424;-67
2022/05/20 12:35:30;;;;;;;11.27;6.68;;;23.00;54.20;;;;;;5117675;27;20032;-68
2022/05/20 12:37:59;;;;;;;9.50;6.88;;;22.90;54.50;;;;;;5125199;28;20371;-67
2022/05/20 12:40:28;;;;;;;11.90;9.27;;;22.90;54.90;;;;;;5122836;27;20149;-67
2022/05/20 12:43:08;;;;;;;14.18;9.20;;;22.80;55.50;;;;;;5114208;28;20023;-67
2022/05/20 12:45:53;;;;;;;13.07;8.63;;;22.80;56.20;;;;;;5120801;28;20483;-67
2022/05/20 12:48:23;;;;;;;12.95;8.88;;;22.70;56.90;;;;;;5135645;27;20031;-66
2022/05/20 12:51:05;;;;;;;14.57;10.13;;;22.60;57.60;;;;;;5121609;27;20031;-67
2022/05/20 12:53:33;;;;;;;14.50;9.40;;;22.50;58.50;;;;;;5127721;28;20030;-67
2022/05/20 12:55:59;;;;;;;16.33;11.68;;;22.40;59.00;;;;;;5125723;27;20024;-66
2022/05/20 12:58:28;;;;;;;16.90;11.75;;;22.30;59.80;;;;;;5122724;27;20072;-66
2022/05/20 13:00:58;;;;;;;15.80;11.73;;;22.20;60.80;;;;;;5120924;27;20461;-67
2022/05/20 13:03:32;;;;;;;18.20;13.48;;;22.10;61.70;;;;;;5107111;27;20106;-67
2022/05/20 13:06:22;;;;;;;16.25;10.57;;;22.00;62.80;;;;;;5120301;27;20034;-67
2022/05/20 13:08:57;;;;;;;15.90;11.52;;;21.90;63.40;;;;;;5101506;27;20035;-67
2022/05/20 13:11:23;;;;;;;18.98;12.50;;;21.90;64.00;;;;;;5120059;27;20096;-67
2022/05/20 13:13:56;;;;;;;22.10;12.35;;;21.90;64.90;;;;;;5121026;27;20027;-67
2022/05/20 13:16:23;;;;;;;19.70;13.18;;;21.70;66.00;;;;;;5122401;27;20150;-67
2022/05/20 13:19:08;;;;;;;17.15;12.75;;;21.70;66.70;;;;;;5130758;27;20043;-66
2022/05/20 13:21:47;;;;;;;20.60;13.63;;;21.60;67.30;;;;;;5125095;27;20106;-66
2022/05/20 13:24:18;;;;;;;18.30;13.88;;;21.60;67.90;;;;;;5118692;27;20092;-67
2022/05/20 13:26:44;;;;;;;16.95;13.55;;;21.70;68.10;;;;;;5124942;27;20032;-66
2022/05/20 13:29:21;;;;;;;16.63;13.57;;;21.60;68.30;;;;;;5102469;27;20069;-72
2022/05/20 13:31:47;;;;;;;20.33;14.65;;;21.70;68.70;;;;;;5101440;28;20038;-74
2022/05/20 13:34:13;;;;;;;19.30;14.32;;;21.70;68.70;;;;;;5118526;27;20413;-65
2022/05/20 13:36:42;;;;;;;21.48;15.13;;;21.80;68.80;;;;;;5117733;27;20096;-70
2022/05/20 13:39:15;;;;;;;20.85;13.60;;;21.90;69.30;;;;;;5100286;28;20047;-68
2022/05/20 13:41:41;;;;;;;18.63;13.18;;;21.90;69.50;;;;;;5120416;27;20034;-67
2022/05/20 13:44:08;;;;;;;22.10;14.68;;;22.00;69.50;;;;;;5122992;27;20105;-66
2022/05/20 13:49:24;;;;;;;18.90;14.60;;;22.10;69.90;;;;;;5136082;27;20456;-66